createdAt,value
2022-08-06T00:00:02.941Z,11.78
2022-08-06T00:02:31.222Z,7.79
2022-08-06T00:05:03.806Z,7.03
2022-08-06T00:07:35.915Z,7.41
2022-08-06T00:10:13.929Z,8.93
2022-08-06T00:12:41.751Z,8.55
2022-08-06T00:15:13.527Z,7.60
2022-08-06T00:17:46.359Z,8.93
2022-08-06T00:20:26.025Z,6.65
2022-08-06T00:23:00.864Z,5.51
2022-08-06T00:25:28.809Z,6.27
2022-08-06T00:28:02.207Z,6.84
2022-08-06T00:30:36.879Z,7.03
2022-08-06T00:33:04.762Z,9.50
2022-08-06T00:35:31.877Z,5.32
2022-08-06T00:37:59.838Z,6.65
2022-08-06T00:40:31.515Z,7.03
2022-08-06T00:43:02.470Z,5.89
2022-08-06T00:45:38.002Z,5.32
2022-08-06T00:48:30.844Z,6.84
2022-08-06T00:51:01.928Z,8.17
2022-08-06T00:53:33.976Z,6.65
2022-08-06T00:56:08.896Z,8.36
2022-08-06T00:58:40.014Z,8.55
2022-08-06T01:01:17.368Z,5.51
2022-08-06T01:03:51.552Z,8.74
2022-08-06T01:06:54.254Z,8.74
2022-08-06T01:09:11.071Z,6.84
2022-08-06T01:11:40.044Z,6.46
2022-08-06T01:14:09.986Z,7.22
2022-08-06T01:16:49.542Z,5.89
2022-08-06T01:19:50.443Z,7.41
2022-08-06T01:22:54.255Z,6.27
2022-08-06T01:25:53.186Z,12.92
2022-08-06T01:28:46.388Z,8.93
2022-08-06T01:31:45.820Z,9.12
2022-08-06T01:34:25.599Z,7.79
2022-08-06T01:37:09.783Z,8.74
2022-08-06T01:39:54.009Z,7.79
2022-08-06T01:42:34.820Z,8.55
2022-08-06T01:45:09.871Z,8.93
2022-08-06T01:47:54.654Z,14.82
2022-08-06T01:50:29.290Z,14.25
2022-08-06T01:53:01.128Z,6.46
2022-08-06T01:55:56.360Z,6.46
2022-08-06T01:58:34.455Z,6.27
2022-08-06T02:01:07.849Z,6.46
2022-08-06T02:03:50.014Z,5.13
2022-08-06T02:06:34.085Z,6.27
2022-08-06T02:09:23.234Z,8.36
2022-08-06T02:12:16.402Z,6.84
2022-08-06T02:14:55.113Z,4.94
2022-08-06T02:18:03.619Z,6.46
2022-08-06T02:20:37.461Z,7.60
2022-08-06T02:23:10.144Z,5.32
2022-08-06T02:25:41.454Z,4.56
2022-08-06T02:28:11.462Z,5.32
2022-08-06T02:30:53.543Z,5.13
2022-08-06T02:33:20.616Z,5.32
2022-08-06T02:36:30.528Z,6.08
2022-08-06T02:39:12.629Z,4.94
2022-08-06T02:41:56.801Z,6.46
2022-08-06T02:44:45.748Z,5.70
2022-08-06T02:47:18.499Z,5.13
2022-08-06T02:49:56.934Z,7.41
2022-08-06T02:52:56.327Z,5.70
2022-08-06T02:55:34.391Z,7.41
2022-08-06T02:58:38.731Z,5.51
2022-08-06T03:01:21.410Z,7.03
2022-08-06T03:03:59.463Z,6.46
2022-08-06T03:06:34.559Z,8.55
2022-08-06T03:09:05.738Z,6.46
2022-08-06T03:11:36.150Z,6.65
2022-08-06T03:14:13.194Z,9.69
2022-08-06T03:16:58.388Z,5.89
2022-08-06T03:19:56.277Z,8.74
2022-08-06T03:22:35.444Z,9.31
2022-08-06T03:25:09.827Z,12.54
2022-08-06T03:27:43.756Z,9.69
2022-08-06T03:30:31.419Z,9.69
2022-08-06T03:33:28.661Z,10.26
2022-08-06T03:36:01.230Z,13.11
2022-08-06T03:38:35.500Z,12.16
2022-08-06T03:41:08.054Z,9.50
2022-08-06T03:43:55.951Z,8.74
2022-08-06T03:46:31.693Z,14.25
2022-08-06T03:49:04.479Z,12.54
2022-08-06T03:51:53.088Z,9.50
2022-08-06T03:54:33.776Z,11.97
2022-08-06T03:57:12.123Z,10.26
2022-08-06T03:59:59.194Z,15.20
2022-08-06T04:02:50.568Z,10.45
2022-08-06T04:05:25.814Z,8.55
2022-08-06T04:07:57.686Z,9.12
2022-08-06T04:10:33.916Z,7.41
2022-08-06T04:13:37.951Z,8.55
2022-08-06T04:15:56.292Z,8.36
2022-08-06T04:18:41.716Z,6.08
2022-08-06T04:23:07.431Z,5.13
2022-08-06T04:24:09.962Z,4.94
2022-08-06T04:26:40.514Z,7.98
2022-08-06T04:29:13.544Z,5.70
2022-08-06T04:32:13.116Z,6.08
2022-08-06T04:34:37.414Z,6.84
2022-08-06T04:37:24.932Z,5.32
2022-08-06T04:39:52.748Z,7.60
2022-08-06T04:42:21.245Z,4.94
2022-08-06T04:44:59.251Z,4.94
2022-08-06T04:47:41.977Z,5.51
2022-08-06T04:50:17.718Z,6.27
2022-08-06T04:52:50.346Z,5.51
2022-08-06T04:55:33.463Z,9.31
2022-08-06T04:58:11.350Z,7.98
2022-08-06T05:00:59.591Z,5.89
2022-08-06T05:04:06.875Z,5.51
2022-08-06T05:06:34.846Z,6.08
2022-08-06T05:09:22.980Z,9.12
2022-08-06T05:12:07.019Z,7.22
2022-08-06T05:14:46.349Z,6.27
2022-08-06T05:17:18.286Z,7.79
2022-08-06T05:19:58.291Z,6.65
2022-08-06T05:22:52.264Z,5.89
2022-08-06T05:25:22.241Z,8.17
2022-08-06T05:28:03.601Z,8.55
2022-08-06T05:30:49.985Z,6.08
2022-08-06T05:33:29.699Z,7.03
2022-08-06T05:36:02.397Z,7.03
2022-08-06T05:38:37.098Z,7.79
2022-08-06T05:41:11.109Z,5.89
2022-08-06T05:43:58.908Z,9.12
2022-08-06T05:46:35.234Z,6.27
2022-08-06T05:49:54.681Z,6.46
2022-08-06T05:52:49.694Z,6.84
2022-08-06T05:55:38.661Z,9.50
2022-08-06T05:58:15.264Z,11.02
2022-08-06T06:00:46.967Z,8.55
2022-08-06T06:03:23.865Z,9.88
2022-08-06T06:06:06.853Z,11.78
2022-08-06T06:08:55.535Z,6.46
2022-08-06T06:11:47.290Z,9.69
2022-08-06T06:14:32.731Z,5.70
2022-08-06T06:17:50.023Z,11.59
2022-08-06T06:21:03.139Z,6.46
2022-08-06T06:23:55.010Z,6.84
2022-08-06T06:26:49.806Z,7.98
2022-08-06T06:30:05.011Z,11.97
2022-08-06T06:32:42.597Z,12.92
2022-08-06T06:35:42.860Z,11.78
2022-08-06T06:38:44.310Z,9.69
2022-08-06T06:41:31.580Z,9.88
2022-08-06T06:45:03.350Z,15.96
2022-08-06T06:47:36.545Z,7.60
2022-08-06T06:50:20.345Z,7.41
2022-08-06T06:52:52.134Z,7.98
2022-08-06T06:55:55.736Z,7.98
2022-08-06T06:58:59.815Z,6.27
2022-08-06T07:01:33.337Z,6.46
2022-08-06T07:04:06.269Z,6.46
2022-08-06T07:06:44.636Z,7.03
2022-08-06T07:09:41.646Z,4.18
2022-08-06T07:12:20.134Z,5.32
2022-08-06T07:15:01.097Z,6.08
2022-08-06T07:17:58.941Z,10.64
2022-08-06T07:20:29.219Z,5.13
2022-08-06T07:24:04.622Z,4.75
2022-08-06T07:25:54.530Z,4.94
2022-08-06T07:28:29.645Z,5.13
2022-08-06T07:31:04.383Z,4.37
2022-08-06T07:34:00.127Z,6.65
2022-08-06T07:36:38.061Z,6.08
2022-08-06T07:39:12.447Z,8.17
2022-08-06T07:42:07.785Z,5.89
2022-08-06T07:44:54.652Z,6.08
2022-08-06T07:47:54.356Z,4.75
2022-08-06T07:50:25.381Z,6.46
2022-08-06T07:52:56.963Z,4.56
2022-08-06T07:55:36.752Z,5.70
2022-08-06T07:58:09.662Z,4.94
2022-08-06T08:00:39.120Z,4.75
2022-08-06T08:03:43.543Z,7.22
2022-08-06T08:06:21.195Z,5.89
2022-08-06T08:08:54.700Z,5.51
2022-08-06T08:11:38.175Z,4.75
2022-08-06T08:14:19.012Z,6.46
2022-08-06T08:16:48.923Z,5.13
2022-08-06T08:19:42.791Z,3.80
2022-08-06T08:22:18.838Z,4.37
2022-08-06T08:24:53.842Z,4.37
2022-08-06T08:27:23.770Z,4.75
2022-08-06T08:30:05.422Z,5.70
2022-08-06T08:32:32.650Z,5.51
2022-08-06T08:35:00.688Z,6.08
2022-08-06T08:37:32.351Z,4.18
2022-08-06T08:40:00.250Z,5.32
2022-08-06T08:42:49.325Z,3.99
2022-08-06T08:45:23.297Z,4.75
2022-08-06T08:48:06.017Z,6.27
2022-08-06T08:50:35.574Z,4.75
2022-08-06T08:53:12.968Z,5.51
2022-08-06T08:57:10.695Z,7.03
2022-08-06T08:58:39.622Z,5.70
2022-08-06T09:01:51.115Z,5.13
2022-08-06T09:04:02.482Z,5.51
2022-08-06T09:06:30.512Z,5.51
2022-08-06T09:09:04.807Z,6.84
2022-08-06T09:12:05.548Z,5.89
2022-08-06T09:14:28.260Z,4.75
2022-08-06T09:17:04.043Z,5.51
2022-08-06T09:19:37.776Z,6.27
2022-08-06T09:22:08.888Z,5.32
2022-08-06T09:24:39.601Z,5.32
2022-08-06T09:27:47.258Z,6.46
2022-08-06T09:30:11.740Z,5.70
2022-08-06T09:32:54.975Z,4.37
2022-08-06T09:35:44.850Z,5.13
2022-08-06T09:38:16.531Z,5.32
2022-08-06T09:41:15.455Z,4.37
2022-08-06T09:44:03.561Z,6.84
2022-08-06T09:46:39.068Z,5.70
2022-08-06T09:49:45.457Z,5.51
2022-08-06T09:52:19.691Z,5.70
2022-08-06T09:54:52.702Z,6.65
2022-08-06T09:57:36.325Z,5.51
2022-08-06T10:00:14.698Z,5.51
2022-08-06T10:02:50.794Z,4.75
2022-08-06T10:05:20.378Z,4.94
2022-08-06T10:08:02.005Z,4.75
2022-08-06T10:10:52.672Z,4.18
2022-08-06T10:13:39.227Z,4.56
2022-08-06T10:16:29.030Z,7.03
2022-08-06T10:18:59.991Z,4.94
2022-08-06T10:21:42.484Z,5.13
2022-08-06T10:24:25.822Z,5.89
2022-08-06T10:27:14.257Z,4.75
2022-08-06T10:30:02.272Z,4.18
2022-08-06T10:32:45.002Z,4.94
2022-08-06T10:35:16.734Z,4.75
2022-08-06T10:37:53.128Z,5.32
2022-08-06T10:40:30.650Z,7.60
2022-08-06T10:43:03.354Z,3.99
2022-08-06T10:45:48.950Z,5.70
2022-08-06T10:49:00.985Z,4.75
2022-08-06T10:51:08.828Z,3.80
2022-08-06T10:54:00.991Z,4.37
2022-08-06T10:56:38.881Z,5.32
2022-08-06T10:59:18.202Z,4.18
2022-08-06T11:02:20.119Z,3.80
2022-08-06T11:05:21.181Z,5.70
2022-08-06T11:08:23.482Z,4.94
2022-08-06T11:11:41.990Z,3.80
2022-08-06T11:14:18.435Z,3.99
2022-08-06T11:16:57.504Z,5.13
2022-08-06T11:19:46.990Z,4.37
2022-08-06T11:22:43.283Z,5.32
2022-08-06T11:26:07.211Z,5.13
2022-08-06T11:28:33.826Z,4.37
2022-08-06T11:31:12.094Z,4.37
2022-08-06T11:33:48.610Z,4.94
2022-08-06T11:36:42.419Z,4.56
2022-08-06T11:39:34.645Z,4.18
2022-08-06T11:42:48.182Z,5.89
2022-08-06T11:46:20.019Z,4.18
2022-08-06T11:48:12.781Z,4.75
2022-08-06T11:50:53.951Z,4.75
2022-08-06T11:53:52.255Z,5.51
2022-08-06T11:56:19.985Z,5.70
2022-08-06T11:59:16.119Z,5.70
2022-08-06T12:01:48.383Z,6.08
2022-08-06T12:04:36.810Z,6.27
2022-08-06T12:07:29.527Z,5.13
2022-08-06T12:10:06.948Z,4.18
2022-08-06T12:12:51.921Z,3.99
2022-08-06T12:15:59.280Z,4.94
2022-08-06T12:18:20.746Z,6.84
2022-08-06T12:20:57.712Z,5.13
2022-08-06T12:23:53.801Z,4.94
2022-08-06T12:26:15.016Z,7.41
2022-08-06T12:28:43.910Z,10.45
2022-08-06T12:31:35.836Z,5.32
2022-08-06T12:33:59.282Z,7.41
2022-08-06T12:36:34.960Z,5.13
2022-08-06T12:39:13.713Z,4.18
2022-08-06T12:41:47.446Z,4.56
2022-08-06T12:44:20.271Z,4.56
2022-08-06T12:47:15.113Z,4.75
2022-08-06T12:49:43.963Z,4.75
2022-08-06T12:52:30.257Z,4.94
2022-08-06T12:54:57.173Z,3.99
2022-08-06T12:57:58.892Z,4.37
2022-08-06T13:00:16.616Z,3.99
2022-08-06T13:02:46.322Z,5.89
2022-08-06T13:05:15.566Z,4.37
2022-08-06T13:07:50.823Z,4.94
2022-08-06T13:10:34.199Z,6.84
2022-08-06T13:14:14.362Z,3.42
2022-08-06T13:16:06.868Z,5.51
2022-08-06T13:18:47.521Z,3.99
2022-08-06T13:21:27.041Z,4.37
2022-08-06T13:24:12.754Z,5.70
2022-08-06T13:26:52.905Z,4.37
2022-08-06T13:30:35.202Z,3.80
2022-08-06T13:32:27.322Z,4.18
2022-08-06T13:35:04.252Z,5.89
2022-08-06T13:37:57.506Z,3.80
2022-08-06T13:40:47.075Z,5.70
2022-08-06T13:43:40.015Z,4.94
2022-08-06T13:46:16.957Z,5.51
2022-08-06T13:48:52.634Z,4.18
2022-08-06T13:51:27.602Z,4.94
2022-08-06T13:53:58.631Z,4.37
2022-08-06T13:56:29.174Z,4.94
2022-08-06T13:59:01.424Z,4.75
2022-08-06T14:01:44.685Z,4.75
2022-08-06T14:04:15.540Z,3.61
2022-08-06T14:06:46.904Z,5.13
2022-08-06T14:09:19.351Z,4.18
2022-08-06T14:12:00.591Z,4.18
2022-08-06T14:14:29.917Z,4.37
2022-08-06T14:17:00.411Z,4.18
2022-08-06T14:20:17.573Z,3.99
2022-08-06T14:22:18.207Z,4.94
2022-08-06T14:24:52.833Z,4.56
2022-08-06T14:27:25.816Z,5.13
2022-08-06T14:30:25.890Z,4.56
2022-08-06T14:32:47.743Z,6.08
2022-08-06T14:35:17.447Z,4.75
2022-08-06T14:37:50.513Z,5.51
2022-08-06T14:40:41.293Z,5.51
2022-08-06T14:43:55.164Z,4.94
2022-08-06T14:46:25.973Z,4.56
2022-08-06T14:48:57.641Z,4.94
2022-08-06T14:51:37.522Z,3.61
2022-08-06T14:54:15.698Z,8.93
2022-08-06T14:56:45.428Z,5.70
2022-08-06T14:59:22.553Z,4.94
2022-08-06T15:01:51.708Z,5.13
2022-08-06T15:04:24.717Z,3.99
2022-08-06T15:06:57.415Z,4.94
2022-08-06T15:10:05.789Z,6.08
2022-08-06T15:12:24.854Z,4.18
2022-08-06T15:15:09.119Z,6.84
2022-08-06T15:18:05.610Z,5.13
2022-08-06T15:20:27.211Z,6.27
2022-08-06T15:22:55.745Z,4.94
2022-08-06T15:26:00.358Z,5.89
2022-08-06T15:28:11.453Z,4.56
2022-08-06T15:30:39.347Z,4.56
2022-08-06T15:33:11.413Z,6.08
2022-08-06T15:35:43.690Z,5.70
2022-08-06T15:38:27.067Z,4.56
2022-08-06T15:40:55.102Z,3.99
2022-08-06T15:43:25.767Z,4.18
2022-08-06T15:45:57.995Z,7.03
2022-08-06T15:48:30.586Z,4.37
2022-08-06T15:51:27.482Z,8.17
2022-08-06T15:53:54.021Z,4.56
2022-08-06T15:56:33.899Z,4.94
2022-08-06T15:59:11.948Z,5.13
2022-08-06T16:01:52.476Z,4.94
2022-08-06T16:04:35.522Z,4.94
2022-08-06T16:07:06.642Z,6.46
2022-08-06T16:10:00.474Z,3.80
2022-08-06T16:12:25.631Z,4.56
2022-08-06T16:14:56.054Z,4.56
2022-08-06T16:17:33.741Z,3.80
2022-08-06T16:20:20.766Z,3.99
2022-08-06T16:22:52.488Z,3.80
2022-08-06T16:25:23.109Z,4.56
2022-08-06T16:27:51.937Z,4.37
2022-08-06T16:30:21.161Z,5.13
2022-08-06T16:32:50.114Z,6.65
2022-08-06T16:35:21.923Z,5.32
2022-08-06T16:37:52.966Z,3.99
2022-08-06T16:40:24.929Z,4.18
2022-08-06T16:42:53.857Z,5.32
2022-08-06T16:45:23.096Z,3.99
2022-08-06T16:48:04.371Z,6.27
2022-08-06T16:50:43.148Z,3.99
2022-08-06T16:54:14.525Z,4.56
2022-08-06T16:56:00.094Z,9.31
2022-08-06T17:02:15.150Z,4.37
2022-08-06T17:04:03.125Z,6.08
2022-08-06T17:06:34.223Z,5.13
2022-08-06T17:12:00.603Z,4.37
2022-08-06T17:14:32.740Z,4.37
2022-08-06T17:20:01.142Z,4.94
2022-08-06T17:22:30.805Z,4.37
2022-08-06T17:24:58.806Z,4.56
2022-08-06T17:30:16.842Z,4.75
2022-08-06T17:32:47.400Z,6.27
2022-08-06T17:35:16.414Z,5.89
2022-08-06T17:37:50.246Z,6.84
2022-08-06T17:40:32.100Z,3.80
2022-08-06T17:43:12.607Z,6.27
2022-08-06T17:45:52.516Z,6.84
2022-08-06T17:48:26.964Z,5.89
2022-08-06T17:50:57.760Z,4.75
2022-08-06T17:53:25.942Z,5.51
2022-08-06T17:56:12.742Z,6.08
2022-08-06T17:59:17.688Z,6.46
2022-08-06T18:01:49.133Z,7.22
2022-08-06T18:04:22.407Z,5.70
2022-08-06T18:07:01.233Z,4.94
2022-08-06T18:10:11.115Z,6.27
2022-08-06T18:12:27.974Z,4.37
2022-08-06T18:14:56.139Z,5.13
2022-08-06T18:17:47.615Z,4.37
2022-08-06T18:20:11.477Z,4.75
2022-08-06T18:22:42.535Z,3.80
2022-08-06T18:25:15.244Z,4.37
2022-08-06T18:27:55.497Z,6.27
2022-08-06T18:30:30.280Z,4.56
2022-08-06T18:33:12.746Z,4.18
2022-08-06T18:35:56.108Z,6.08
2022-08-06T18:38:31.415Z,4.75
2022-08-06T18:41:05.854Z,3.99
2022-08-06T18:43:49.938Z,4.94
2022-08-06T18:46:56.945Z,6.08
2022-08-06T18:49:26.681Z,5.13
2022-08-06T18:52:00.827Z,6.84
2022-08-06T18:54:27.967Z,5.32
2022-08-06T18:56:57.483Z,6.46
2022-08-06T18:59:29.759Z,5.51
2022-08-06T19:02:00.509Z,5.51
2022-08-06T19:04:29.903Z,4.94
2022-08-06T19:07:00.135Z,4.56
2022-08-06T19:09:35.238Z,4.18
2022-08-06T19:12:20.475Z,5.51
2022-08-06T19:14:50.197Z,4.18
2022-08-06T19:17:47.823Z,6.27
2022-08-06T19:20:19.979Z,5.70
2022-08-06T19:22:53.465Z,5.89
2022-08-06T19:25:22.886Z,6.65
2022-08-06T19:28:30.780Z,6.08
2022-08-06T19:30:46.073Z,5.70
2022-08-06T19:33:16.293Z,5.32
2022-08-06T19:36:06.748Z,4.94
2022-08-06T19:38:33.765Z,6.65
2022-08-06T19:41:02.429Z,5.32
2022-08-06T19:44:26.468Z,5.89
2022-08-06T19:46:30.711Z,7.60
2022-08-06T19:49:04.562Z,5.51
2022-08-06T19:52:02.369Z,4.56
2022-08-06T19:54:26.278Z,6.65
2022-08-06T19:57:08.451Z,7.22
2022-08-06T20:00:52.993Z,5.89
2022-08-06T20:02:26.438Z,6.27
2022-08-06T20:04:55.705Z,5.51
2022-08-06T20:07:27.955Z,4.94
2022-08-06T20:10:01.338Z,6.27
2022-08-06T20:12:40.792Z,6.46
2022-08-06T20:15:17.621Z,6.27
2022-08-06T20:17:54.109Z,4.75
2022-08-06T20:20:29.141Z,5.89
2022-08-06T20:23:08.439Z,5.32
2022-08-06T20:26:34.302Z,8.36
2022-08-06T20:29:08.729Z,4.94
2022-08-06T20:31:22.204Z,5.70
2022-08-06T20:33:59.309Z,5.70
2022-08-06T20:36:31.921Z,7.41
2022-08-06T20:39:01.001Z,6.08
2022-08-06T20:42:03.338Z,5.32
2022-08-06T20:44:19.658Z,5.32
2022-08-06T20:47:01.571Z,6.27
2022-08-06T20:50:03.465Z,5.89
2022-08-06T20:52:24.800Z,6.27
2022-08-06T20:54:55.388Z,6.08
2022-08-06T20:57:27.896Z,6.08
2022-08-06T20:59:58.093Z,6.46
2022-08-06T21:02:31.882Z,4.94
2022-08-06T21:05:16.037Z,5.51
2022-08-06T21:07:57.638Z,5.32
2022-08-06T21:10:30.345Z,5.13
2022-08-06T21:13:06.536Z,7.22
2022-08-06T21:15:54.468Z,6.27
2022-08-06T21:18:24.239Z,6.27
2022-08-06T21:20:53.730Z,5.70
2022-08-06T21:23:42.054Z,7.98
2022-08-06T21:26:15.465Z,7.03
2022-08-06T21:28:54.366Z,6.65
2022-08-06T21:31:24.363Z,9.31
2022-08-06T21:33:54.728Z,8.36
2022-08-06T21:36:25.821Z,6.08
2022-08-06T21:38:59.010Z,6.27
2022-08-06T21:41:38.520Z,7.03
2022-08-06T21:44:17.546Z,6.27
2022-08-06T21:46:50.055Z,8.93
2022-08-06T21:49:58.776Z,8.93
2022-08-06T21:52:12.008Z,7.03
2022-08-06T21:54:43.589Z,7.41
2022-08-06T21:57:12.374Z,7.41
2022-08-06T21:59:46.335Z,7.60
2022-08-06T22:02:26.357Z,8.17
2022-08-06T22:05:00.129Z,7.41
2022-08-06T22:08:07.022Z,7.22
2022-08-06T22:10:28.943Z,7.79
2022-08-06T22:13:15.866Z,7.79
2022-08-06T22:15:47.010Z,8.36
2022-08-06T22:18:18.872Z,6.08
2022-08-06T22:20:56.066Z,6.46
2022-08-06T22:23:25.469Z,6.08
2022-08-06T22:25:57.404Z,7.41
2022-08-06T22:28:34.211Z,7.22
2022-08-06T22:31:08.749Z,7.03
2022-08-06T22:33:58.180Z,7.98
2022-08-06T22:36:34.054Z,10.83
2022-08-06T22:39:03.170Z,7.03
2022-08-06T22:42:04.802Z,8.17
2022-08-06T22:44:31.021Z,8.36
2022-08-06T22:47:05.813Z,9.69
2022-08-06T22:50:00.438Z,7.79
2022-08-06T22:52:39.152Z,7.79
2022-08-06T22:55:11.654Z,7.41
2022-08-06T22:58:05.010Z,7.79
2022-08-06T23:00:36.557Z,9.31
2022-08-06T23:03:13.366Z,10.83
2022-08-06T23:05:46.668Z,8.55
2022-08-06T23:08:15.718Z,10.26
2022-08-06T23:10:48.282Z,8.74
2022-08-06T23:13:23.952Z,8.93
2022-08-06T23:15:58.586Z,9.69
2022-08-06T23:18:30.337Z,10.45
2022-08-06T23:21:20.260Z,9.50
2022-08-06T23:23:54.822Z,9.31
2022-08-06T23:26:31.963Z,8.55
2022-08-06T23:29:04.086Z,10.26
2022-08-06T23:31:34.018Z,7.79
2022-08-06T23:34:33.514Z,7.60
2022-08-06T23:36:57.136Z,10.64
2022-08-06T23:39:29.101Z,9.69
2022-08-06T23:42:22.389Z,8.55
2022-08-06T23:44:51.497Z,8.17
2022-08-06T23:47:54.149Z,8.74
2022-08-06T23:50:10.132Z,8.55
2022-08-06T23:52:42.143Z,9.88
2022-08-06T23:55:26.031Z,8.93
2022-08-06T23:58:00.230Z,9.50
